Time;durP1;ratioP1;P1;durP2;ratioP2;P2;SDS_P1;SDS_P2;PMS_P1;PMS_P2;Temp;Humidity;BMP_temperature;BMP_pressure;BME280_temperature;BME280_humidity;BME280_pressure;Samples;Min_cycle;Max_cycle;Signal;HPM_P1;HPM_P2
2021/03/08 00:02:00;;;;;;;37.13;16.57;;;;;;;;;;5052997;28;20029;-80
2021/03/08 00:04:25;;;;;;;44.00;20.43;;;;;;;;;;5054607;28;20024;-80
2021/03/08 00:06:50;;;;;;;41.63;18.03;;;;;;;;;;5053114;28;20028;-81
2021/03/08 00:09:15;;;;;;;40.77;17.33;;;;;;;;;;5054538;28;20452;-80
2021/03/08 00:11:40;;;;;;;38.67;17.77;;;;;;;;;;5053308;28;20017;-80
2021/03/08 00:14:06;;;;;;;42.90;18.20;;;;;;;;;;5054295;28;20025;-81
2021/03/08 00:16:31;;;;;;;45.20;18.30;;;;;;;;;;5053256;28;20013;-81
2021/03/08 00:18:56;;;;;;;42.93;18.53;;;;;;;;;;5052975;28;20025;-81
2021/03/08 00:21:21;;;;;;;41.33;18.17;;;;;;;;;;5053182;28;20111;-81
2021/03/08 00:23:46;;;;;;;43.63;18.30;;;;;;;;;;5053050;28;20064;-80
2021/03/08 00:26:12;;;;;;;44.73;19.23;;;;;;;;;;5052875;28;20021;-80
2021/03/08 00:28:37;;;;;;;38.00;18.53;;;;;;;;;;5052828;28;20375;-81
2021/03/08 00:31:02;;;;;;;45.97;19.93;;;;;;;;;;5051998;28;20032;-80
2021/03/08 00:33:27;;;;;;;42.90;18.83;;;;;;;;;;5052864;28;20039;-80
2021/03/08 00:35:52;;;;;;;48.87;21.23;;;;;;;;;;5053978;28;20457;-81
2021/03/08 00:38:17;;;;;;;50.50;21.70;;;;;;;;;;5052554;28;20364;-81
2021/03/08 00:40:43;;;;;;;49.53;21.87;;;;;;;;;;5052741;28;20025;-81
2021/03/08 00:43:08;;;;;;;46.77;21.20;;;;;;;;;;5052430;28;20158;-81
2021/03/08 00:45:33;;;;;;;52.10;21.60;;;;;;;;;;5052598;28;20028;-80
2021/03/08 00:47:58;;;;;;;53.57;21.77;;;;;;;;;;5053955;28;20028;-80
2021/03/08 00:50:26;;;;;;;50.83;22.20;;;;;;;;;;5052340;28;20020;-80
2021/03/08 00:52:51;;;;;;;52.03;22.97;;;;;;;;;;5052278;28;20036;-81
2021/03/08 00:55:17;;;;;;;50.13;21.77;;;;;;;;;;5052306;28;20052;-81
2021/03/08 00:57:42;;;;;;;57.80;24.53;;;;;;;;;;5052400;28;20120;-81
2021/03/08 01:00:12;;;;;;;60.93;24.57;;;;;;;;;;5052168;28;20052;-80
2021/03/08 01:02:37;;;;;;;60.33;24.33;;;;;;;;;;5052135;28;20044;-81
2021/03/08 01:05:03;;;;;;;53.53;24.77;;;;;;;;;;5052305;28;20025;-80
2021/03/08 01:07:28;;;;;;;54.20;22.83;;;;;;;;;;5051772;28;20017;-81
2021/03/08 01:09:54;;;;;;;56.07;23.90;;;;;;;;;;5052059;28;20388;-81
2021/03/08 01:12:19;;;;;;;53.40;23.53;;;;;;;;;;5052408;28;20111;-80
2021/03/08 01:14:44;;;;;;;56.20;24.77;;;;;;;;;;5052146;28;20021;-80
2021/03/08 01:17:10;;;;;;;59.13;25.73;;;;;;;;;;5051868;28;20108;-80
2021/03/08 01:19:35;;;;;;;56.80;25.23;;;;;;;;;;5053062;28;20372;-81
2021/03/08 01:22:01;;;;;;;69.67;25.17;;;;;;;;;;5051711;28;20094;-81
2021/03/08 01:24:26;;;;;;;58.57;24.70;;;;;;;;;;5052463;28;20414;-80
2021/03/08 01:26:51;;;;;;;57.67;24.77;;;;;;;;;;5051967;28;20017;-81
2021/03/08 01:29:16;;;;;;;59.90;24.60;;;;;;;;;;5051475;28;20476;-81
2021/03/08 01:31:42;;;;;;;55.70;24.27;;;;;;;;;;5051739;28;20024;-80
2021/03/08 01:34:07;;;;;;;59.13;24.50;;;;;;;;;;5051742;28;20071;-80
2021/03/08 01:36:32;;;;;;;56.80;24.97;;;;;;;;;;5051530;28;20129;-81
2021/03/08 01:38:57;;;;;;;64.73;25.10;;;;;;;;;;5051583;28;20548;-81
2021/03/08 01:41:22;;;;;;;58.60;25.03;;;;;;;;;;5052274;28;20013;-81
2021/03/08 01:43:48;;;;;;;55.40;23.87;;;;;;;;;;5051358;28;20460;-80
2021/03/08 01:46:13;;;;;;;57.60;25.07;;;;;;;;;;5052766;28;20514;-80
2021/03/08 01:48:38;;;;;;;61.60;24.57;;;;;;;;;;5050971;28;20029;-81
2021/03/08 01:51:04;;;;;;;55.67;23.83;;;;;;;;;;5051129;28;20090;-81
2021/03/08 01:53:29;;;;;;;60.27;24.70;;;;;;;;;;5050834;28;20503;-81
2021/03/08 01:55:56;;;;;;;61.20;24.77;;;;;;;;;;5051435;28;20048;-81
2021/03/08 01:58:21;;;;;;;57.07;25.03;;;;;;;;;;5052307;28;20029;-80
2021/03/08 02:00:47;;;;;;;54.93;24.33;;;;;;;;;;5050857;28;20131;-81
2021/03/08 02:03:12;;;;;;;59.10;25.33;;;;;;;;;;5051239;28;20086;-80
2021/03/08 02:05:42;;;;;;;54.43;24.40;;;;;;;;;;5050840;28;20053;-80
2021/03/08 02:08:08;;;;;;;58.20;25.40;;;;;;;;;;5051050;28;20037;-81
2021/03/08 02:10:34;;;;;;;58.17;25.77;;;;;;;;;;5050499;28;20029;-80
2021/03/08 02:13:23;;;;;;;66.67;26.40;;;;;;;;;;5050880;28;20029;-80
2021/03/08 02:15:48;;;;;;;60.70;24.30;;;;;;;;;;5049206;28;20110;-80
2021/03/08 02:18:16;;;;;;;57.10;24.10;;;;;;;;;;5051059;28;20447;-81
2021/03/08 02:20:41;;;;;;;59.90;25.47;;;;;;;;;;5050442;28;20028;-79
2021/03/08 02:23:25;;;;;;;65.27;27.60;;;;;;;;;;5049848;28;20537;-81
2021/03/08 02:25:50;;;;;;;61.37;25.00;;;;;;;;;;5046311;28;20028;-79
2021/03/08 02:28:34;;;;;;;64.90;27.37;;;;;;;;;;5051842;28;20031;-81
2021/03/08 02:31:01;;;;;;;64.30;27.23;;;;;;;;;;5050279;28;20107;-80
2021/03/08 02:33:31;;;;;;;65.50;25.80;;;;;;;;;;5050452;28;20101;-81
2021/03/08 02:35:59;;;;;;;69.10;28.43;;;;;;;;;;5050318;28;20020;-81
2021/03/08 02:38:28;;;;;;;68.53;27.07;;;;;;;;;;5050509;28;20104;-81
2021/03/08 02:40:56;;;;;;;70.80;28.67;;;;;;;;;;5044531;28;20017;-81
2021/03/08 02:43:27;;;;;;;67.03;26.23;;;;;;;;;;5046628;28;20036;-81
2021/03/08 02:45:53;;;;;;;67.83;27.87;;;;;;;;;;5050595;28;20157;-80
2021/03/08 02:48:20;;;;;;;63.67;27.30;;;;;;;;;;5050547;28;20021;-81
2021/03/08 02:50:46;;;;;;;70.20;27.67;;;;;;;;;;5049861;28;20017;-81
2021/03/08 02:53:13;;;;;;;64.77;27.00;;;;;;;;;;5051685;28;20021;-81
2021/03/08 02:55:40;;;;;;;67.30;26.73;;;;;;;;;;5051746;28;20017;-81
2021/03/08 02:58:08;;;;;;;70.00;27.63;;;;;;;;;;5050038;28;20050;-81
2021/03/08 03:00:33;;;;;;;63.93;26.77;;;;;;;;;;5050401;28;20389;-81
2021/03/08 03:03:00;;;;;;;73.77;27.60;;;;;;;;;;5049951;28;20025;-81
2021/03/08 03:05:26;;;;;;;66.17;27.30;;;;;;;;;;5050068;28;20029;-81
2021/03/08 03:07:52;;;;;;;67.60;26.20;;;;;;;;;;5051628;28;20051;-80
2021/03/08 03:10:18;;;;;;;63.47;26.47;;;;;;;;;;5051740;28;20425;-81
2021/03/08 03:12:44;;;;;;;65.43;28.33;;;;;;;;;;5050095;28;20048;-81
2021/03/08 03:15:11;;;;;;;67.43;27.40;;;;;;;;;;5050372;28;20460;-80
2021/03/08 03:17:37;;;;;;;67.83;28.20;;;;;;;;;;5050145;28;20025;-81
2021/03/08 03:20:05;;;;;;;62.60;26.37;;;;;;;;;;5051928;28;20089;-81
2021/03/08 03:22:30;;;;;;;69.90;28.90;;;;;;;;;;5045748;28;20195;-81
2021/03/08 03:24:56;;;;;;;64.63;26.73;;;;;;;;;;5050189;28;20190;-81
2021/03/08 03:27:22;;;;;;;69.23;28.27;;;;;;;;;;5050072;28;20025;-81
2021/03/08 03:29:48;;;;;;;66.93;27.53;;;;;;;;;;5051068;28;20032;-81
2021/03/08 03:32:14;;;;;;;71.77;28.10;;;;;;;;;;5050091;28;20024;-81
2021/03/08 03:34:39;;;;;;;65.47;27.13;;;;;;;;;;5053289;28;20013;-81
2021/03/08 03:37:04;;;;;;;72.67;27.23;;;;;;;;;;5053852;28;20033;-81
2021/03/08 03:39:30;;;;;;;67.93;27.27;;;;;;;;;;5053839;28;20028;-81
2021/03/08 03:41:55;;;;;;;66.13;27.23;;;;;;;;;;5053444;28;20025;-81
2021/03/08 03:44:20;;;;;;;69.93;29.43;;;;;;;;;;5053601;28;20025;-80
2021/03/08 03:46:46;;;;;;;75.03;28.83;;;;;;;;;;5053774;28;20033;-80
2021/03/08 03:49:12;;;;;;;71.07;26.87;;;;;;;;;;5049335;28;20380;-81
2021/03/08 03:51:37;;;;;;;68.93;28.13;;;;;;;;;;5053544;28;20032;-80
2021/03/08 03:54:03;;;;;;;67.23;27.17;;;;;;;;;;5053492;28;20068;-81
2021/03/08 03:56:29;;;;;;;65.43;26.07;;;;;;;;;;5053363;28;20449;-81
2021/03/08 03:58:58;;;;;;;65.17;25.93;;;;;;;;;;5053366;28;20029;-81
2021/03/08 04:01:25;;;;;;;63.13;25.10;;;;;;;;;;5053421;28;20511;-81
2021/03/08 04:03:55;;;;;;;64.87;26.63;;;;;;;;;;5054638;28;20044;-80
2021/03/08 04:06:22;;;;;;;69.63;27.57;;;;;;;;;;5049216;28;20048;-80
2021/03/08 04:08:49;;;;;;;64.03;26.53;;;;;;;;;;5053210;28;20473;-80
2021/03/08 04:11:16;;;;;;;72.60;28.23;;;;;;;;;;5054097;28;20033;-80
2021/03/08 04:13:42;;;;;;;63.13;26.37;;;;;;;;;;5054619;28;20021;-81
2021/03/08 04:16:08;;;;;;;68.33;27.03;;;;;;;;;;5053169;28;20031;-81
2021/03/08 04:18:34;;;;;;;71.63;28.50;;;;;;;;;;5053112;28;20016;-81
2021/03/08 04:21:00;;;;;;;70.27;27.30;;;;;;;;;;5052955;28;20036;-80
2021/03/08 04:23:26;;;;;;;62.53;27.20;;;;;;;;;;5052962;28;20025;-80
2021/03/08 04:25:52;;;;;;;70.10;27.30;;;;;;;;;;5053095;28;20098;-80
2021/03/08 04:28:17;;;;;;;62.67;26.43;;;;;;;;;;5052667;28;20037;-80
2021/03/08 04:30:44;;;;;;;67.03;26.50;;;;;;;;;;5052872;28;20102;-81
2021/03/08 04:33:09;;;;;;;67.43;25.93;;;;;;;;;;5054327;28;20025;-80
2021/03/08 04:35:35;;;;;;;65.17;26.37;;;;;;;;;;5052887;28;20036;-81
2021/03/08 04:38:00;;;;;;;64.70;25.57;;;;;;;;;;5054114;28;20024;-81
2021/03/08 04:40:25;;;;;;;64.37;25.57;;;;;;;;;;5052604;28;20033;-81
2021/03/08 04:42:51;;;;;;;69.40;26.07;;;;;;;;;;5054144;28;20025;-80
2021/03/08 04:45:17;;;;;;;62.93;25.13;;;;;;;;;;5051540;28;20074;-80
2021/03/08 04:47:44;;;;;;;58.53;23.77;;;;;;;;;;5052552;28;20155;-80
2021/03/08 04:50:10;;;;;;;59.83;24.23;;;;;;;;;;5052215;28;20048;-81
2021/03/08 04:52:40;;;;;;;60.50;24.97;;;;;;;;;;5052129;28;20476;-80
2021/03/08 04:55:06;;;;;;;59.13;24.37;;;;;;;;;;5052313;28;20021;-80
2021/03/08 04:57:32;;;;;;;61.67;25.80;;;;;;;;;;5053766;28;20017;-81
2021/03/08 04:59:58;;;;;;;63.93;25.77;;;;;;;;;;5052385;28;20024;-80
2021/03/08 05:02:23;;;;;;;62.87;26.47;;;;;;;;;;5053363;28;20025;-80
2021/03/08 05:04:50;;;;;;;63.33;25.40;;;;;;;;;;5052227;28;20037;-80
2021/03/08 05:07:17;;;;;;;63.43;25.70;;;;;;;;;;5052108;28;20365;-80
2021/03/08 05:09:43;;;;;;;58.20;24.80;;;;;;;;;;5052099;28;20028;-80
2021/03/08 05:12:09;;;;;;;70.13;27.70;;;;;;;;;;5052108;28;20029;-81
2021/03/08 05:14:37;;;;;;;62.23;25.07;;;;;;;;;;5045840;28;20025;-81
2021/03/08 05:17:02;;;;;;;57.97;25.27;;;;;;;;;;5051855;28;20495;-80
2021/03/08 05:19:27;;;;;;;60.83;23.57;;;;;;;;;;5051890;28;20107;-80
2021/03/08 05:21:53;;;;;;;69.00;25.80;;;;;;;;;;5051871;28;20029;-80
2021/03/08 05:24:19;;;;;;;66.23;26.20;;;;;;;;;;5051749;28;20089;-80
2021/03/08 05:26:45;;;;;;;72.33;27.30;;;;;;;;;;5052877;28;20468;-80
2021/03/08 05:29:10;;;;;;;68.27;27.30;;;;;;;;;;5051952;28;20060;-80
2021/03/08 05:31:37;;;;;;;70.40;28.87;;;;;;;;;;5052835;28;20136;-81
2021/03/08 05:34:04;;;;;;;66.13;27.67;;;;;;;;;;5048034;28;20025;-80
2021/03/08 05:36:34;;;;;;;72.77;29.33;;;;;;;;;;5052817;28;20093;-81
2021/03/08 05:39:00;;;;;;;80.63;29.27;;;;;;;;;;5051536;28;20029;-80
2021/03/08 05:41:30;;;;;;;73.43;29.57;;;;;;;;;;5051495;28;20037;-81
2021/03/08 05:43:57;;;;;;;71.53;28.40;;;;;;;;;;5051431;28;20493;-80
2021/03/08 05:46:24;;;;;;;70.57;27.90;;;;;;;;;;5051389;28;20036;-81
2021/03/08 05:48:52;;;;;;;65.60;25.97;;;;;;;;;;5046932;28;20029;-80
2021/03/08 05:51:36;;;;;;;71.07;26.80;;;;;;;;;;5051312;28;20031;-80
2021/03/08 05:54:01;;;;;;;67.20;25.87;;;;;;;;;;5046870;28;20057;-81
2021/03/08 05:56:30;;;;;;;67.87;26.50;;;;;;;;;;5051009;28;20405;-80
2021/03/08 05:58:58;;;;;;;61.23;25.23;;;;;;;;;;5051431;28;20040;-81
2021/03/08 06:01:38;;;;;;;66.30;25.90;;;;;;;;;;5050881;28;20027;-80
2021/03/08 06:04:22;;;;;;;63.97;26.30;;;;;;;;;;5051345;28;20128;-81
2021/03/08 06:07:06;;;;;;;63.17;26.37;;;;;;;;;;5051051;28;20025;-81
2021/03/08 06:09:50;;;;;;;67.33;27.03;;;;;;;;;;5050603;28;20468;-81
2021/03/08 06:12:17;;;;;;;70.63;27.67;;;;;;;;;;5057214;28;20037;-81
2021/03/08 06:14:44;;;;;;;72.57;27.87;;;;;;;;;;5050657;28;20037;-81
2021/03/08 06:17:13;;;;;;;68.17;26.37;;;;;;;;;;5051127;28;20029;-81
2021/03/08 06:19:38;;;;;;;64.70;27.27;;;;;;;;;;5050876;28;20047;-81
2021/03/08 06:22:06;;;;;;;65.37;25.87;;;;;;;;;;5050354;28;20024;-81
2021/03/08 06:24:31;;;;;;;71.07;29.00;;;;;;;;;;5050984;28;20195;-81
2021/03/08 06:26:57;;;;;;;65.37;27.33;;;;;;;;;;5050798;28;20193;-81
2021/03/08 06:29:23;;;;;;;67.17;27.60;;;;;;;;;;5052005;28;20021;-81
2021/03/08 06:31:48;;;;;;;75.80;28.53;;;;;;;;;;5050417;28;20028;-80
2021/03/08 06:34:14;;;;;;;68.33;28.33;;;;;;;;;;5050897;28;20017;-81
2021/03/08 06:36:40;;;;;;;74.13;28.87;;;;;;;;;;5050362;28;20108;-81
2021/03/08 06:39:08;;;;;;;73.50;27.50;;;;;;;;;;5050549;28;20078;-81
2021/03/08 06:41:34;;;;;;;152.93;47.00;;;;;;;;;;5050497;28;20476;-81
2021/03/08 06:44:01;;;;;;;218.13;63.97;;;;;;;;;;5050542;28;20063;-80
2021/03/08 06:46:26;;;;;;;396.10;104.60;;;;;;;;;;5050690;28;20020;-81
2021/03/08 06:48:51;;;;;;;204.53;60.70;;;;;;;;;;5050424;28;20031;-80
2021/03/08 06:51:19;;;;;;;82.33;31.27;;;;;;;;;;5050135;28;20100;-80
2021/03/08 06:53:46;;;;;;;113.47;38.57;;;;;;;;;;5051798;28;20021;-81
2021/03/08 06:56:12;;;;;;;107.43;38.30;;;;;;;;;;5050492;28;20017;-81
2021/03/08 06:58:37;;;;;;;128.40;45.97;;;;;;;;;;5050574;28;20420;-80
2021/03/08 07:01:02;;;;;;;129.33;46.80;;;;;;;;;;5050248;28;20035;-80
2021/03/08 07:03:31;;;;;;;80.90;31.97;;;;;;;;;;5051788;28;20431;-81
2021/03/08 07:06:14;;;;;;;92.30;34.77;;;;;;;;;;5051484;28;20021;-81
2021/03/08 07:08:39;;;;;;;91.15;33.53;;;;;;;;;;5048302;28;20017;-81
2021/03/08 07:11:15;;;;;;;64.43;25.40;;;;;;;;;;5054122;28;20028;-81
2021/03/08 07:13:40;;;;;;;64.67;27.07;;;;;;;;;;5076407;28;20017;-81
2021/03/08 07:16:05;;;;;;;78.03;31.30;;;;;;;;;;5054397;28;20025;-81
2021/03/08 07:18:30;;;;;;;83.90;32.73;;;;;;;;;;5053816;28;20523;-81
2021/03/08 07:21:16;;;;;;;77.17;31.03;;;;;;;;;;5055663;28;20047;-80
2021/03/08 07:23:42;;;;;;;77.90;30.13;;;;;;;;;;5053642;28;20094;-81
2021/03/08 07:26:08;;;;;;;78.20;29.73;;;;;;;;;;5053810;28;20036;-81
2021/03/08 07:28:33;;;;;;;68.73;26.80;;;;;;;;;;5052163;28;20033;-81
2021/03/08 07:30:59;;;;;;;69.57;27.97;;;;;;;;;;5050510;28;20083;-81
2021/03/08 07:33:24;;;;;;;70.03;27.43;;;;;;;;;;5053047;28;20021;-81
2021/03/08 07:35:51;;;;;;;68.20;28.73;;;;;;;;;;5055348;28;20071;-81
2021/03/08 07:38:37;;;;;;;71.67;28.73;;;;;;;;;;5052674;28;20009;-81
2021/03/08 07:41:08;;;;;;;75.50;29.83;;;;;;;;;;5068630;28;20037;-81
2021/03/08 07:43:33;;;;;;;74.60;29.47;;;;;;;;;;5054809;28;20017;-81
2021/03/08 07:45:59;;;;;;;73.07;29.73;;;;;;;;;;5055325;28;20058;-81
2021/03/08 07:48:24;;;;;;;70.97;27.73;;;;;;;;;;5052210;28;20052;-80
2021/03/08 07:50:50;;;;;;;73.77;28.93;;;;;;;;;;5054761;28;20009;-80
2021/03/08 07:53:22;;;;;;;74.80;30.87;;;;;;;;;;5052741;28;20017;-81
2021/03/08 07:55:47;;;;;;;;;;;;;;;;;;5055428;28;20035;-80
2021/03/08 07:58:15;;;;;;;78.18;29.67;;;;;;;;;;5053344;28;19904;-81
2021/03/08 08:00:40;;;;;;;76.30;31.33;;;;;;;;;;5053666;28;20028;-81
2021/03/08 08:03:05;;;;;;;78.27;32.83;;;;;;;;;;5053190;28;20025;-80
2021/03/08 08:05:31;;;;;;;85.73;33.83;;;;;;;;;;5053415;28;20025;-81
2021/03/08 08:07:57;;;;;;;77.73;31.37;;;;;;;;;;5047909;28;20048;-80
2021/03/08 08:10:22;;;;;;;81.83;31.23;;;;;;;;;;5053214;28;20025;-80
2021/03/08 08:12:48;;;;;;;84.53;32.47;;;;;;;;;;5054552;28;20409;-81
2021/03/08 08:15:15;;;;;;;81.60;32.93;;;;;;;;;;5052771;28;20074;-81
2021/03/08 08:17:41;;;;;;;79.43;32.00;;;;;;;;;;5053419;28;20017;-81
2021/03/08 08:20:07;;;;;;;88.00;35.20;;;;;;;;;;5052549;28;20021;-81
2021/03/08 08:22:33;;;;;;;84.97;34.37;;;;;;;;;;5052380;28;20491;-81
2021/03/08 08:24:58;;;;;;;83.03;32.60;;;;;;;;;;5080569;28;20021;-81
2021/03/08 08:27:24;;;;;;;85.10;33.90;;;;;;;;;;5053961;28;20025;-80
2021/03/08 08:29:50;;;;;;;86.10;35.43;;;;;;;;;;5054048;28;20029;-80
2021/03/08 08:32:16;;;;;;;78.73;31.50;;;;;;;;;;5052399;28;20028;-80
2021/03/08 08:34:44;;;;;;;81.90;33.47;;;;;;;;;;5052976;28;20021;-81
2021/03/08 08:37:17;;;;;;;88.80;35.90;;;;;;;;;;5054010;28;20055;-81
2021/03/08 08:39:43;;;;;;;83.57;34.15;;;;;;;;;;5045692;28;20021;-81
2021/03/08 08:42:12;;;;;;;82.40;35.30;;;;;;;;;;5052722;28;20025;-81
2021/03/08 08:44:38;;;;;;;81.60;33.43;;;;;;;;;;5044723;28;20013;-81
2021/03/08 08:47:14;;;;;;;90.67;37.13;;;;;;;;;;5052610;28;20108;-81
2021/03/08 08:49:40;;;;;;;81.40;34.87;;;;;;;;;;5046065;28;20023;-81
2021/03/08 08:52:05;;;;;;;83.60;34.70;;;;;;;;;;5052539;28;20029;-81
2021/03/08 08:54:30;;;;;;;75.13;33.03;;;;;;;;;;5052439;28;20021;-81
2021/03/08 08:57:01;;;;;;;81.13;33.60;;;;;;;;;;5053870;28;20067;-81
2021/03/08 08:59:27;;;;;;;77.63;34.60;;;;;;;;;;5052212;28;20422;-81
2021/03/08 09:02:12;;;;;;;85.77;33.57;;;;;;;;;;5052526;28;20017;-81
2021/03/08 09:04:37;;;;;;;75.80;32.43;;;;;;;;;;5053437;28;20028;-81
2021/03/08 09:07:16;;;;;;;77.10;33.23;;;;;;;;;;5051485;28;20028;-81
2021/03/08 09:09:48;;;;;;;81.10;34.50;;;;;;;;;;5072761;28;20059;-81
2021/03/08 09:12:25;;;;;;;72.65;30.20;;;;;;;;;;5052059;28;20025;-81
2021/03/08 09:14:51;;;;;;;72.97;32.80;;;;;;;;;;5051703;28;20031;-81
2021/03/08 09:17:39;;;;;;;80.53;33.47;;;;;;;;;;5051042;28;20025;-81
2021/03/08 09:20:04;;;;;;;81.43;30.93;;;;;;;;;;5049005;28;20048;-80
2021/03/08 09:22:30;;;;;;;72.03;32.60;;;;;;;;;;5051629;28;20049;-81
2021/03/08 09:24:56;;;;;;;72.83;30.40;;;;;;;;;;5051985;28;20476;-81
2021/03/08 09:27:26;;;;;;;74.23;31.77;;;;;;;;;;5053421;28;20099;-81
2021/03/08 09:29:52;;;;;;;60.10;24.93;;;;;;;;;;5045366;28;20431;-81
2021/03/08 09:32:18;;;;;;;51.87;23.73;;;;;;;;;;5052092;28;20048;-81
2021/03/08 09:34:43;;;;;;;54.43;25.20;;;;;;;;;;5051261;28;20052;-81
2021/03/08 09:37:09;;;;;;;65.77;30.40;;;;;;;;;;5051533;28;20104;-81
2021/03/08 09:39:55;;;;;;;60.10;27.13;;;;;;;;;;5051580;28;20040;-81
2021/03/08 09:42:20;;;;;;;52.53;22.07;;;;;;;;;;5051078;28;20087;-81
2021/03/08 09:44:46;;;;;;;53.60;25.13;;;;;;;;;;5052957;28;20465;-81
2021/03/08 09:47:11;;;;;;;45.00;20.30;;;;;;;;;;5051446;28;20013;-81
2021/03/08 09:49:50;;;;;;;48.17;22.67;;;;;;;;;;5050850;28;20049;-81
2021/03/08 09:52:34;;;;;;;51.60;22.50;;;;;;;;;;5051251;28;20017;-81
2021/03/08 09:54:59;;;;;;;46.57;22.33;;;;;;;;;;5052495;28;20017;-80
2021/03/08 09:57:31;;;;;;;49.80;21.33;;;;;;;;;;5049979;28;20067;-78
2021/03/08 09:59:56;;;;;;;52.93;25.70;;;;;;;;;;5050767;28;20054;-78
2021/03/08 10:02:22;;;;;;;59.10;22.70;;;;;;;;;;5051336;28;20361;-80
2021/03/08 10:04:52;;;;;;;56.30;23.43;;;;;;;;;;5050931;28;20043;-80
2021/03/08 10:07:17;;;;;;;51.97;24.17;;;;;;;;;;5052338;28;20031;-80
2021/03/08 10:09:43;;;;;;;59.67;24.87;;;;;;;;;;5051907;28;20461;-81
2021/03/08 10:12:08;;;;;;;58.63;23.03;;;;;;;;;;5050788;28;20024;-80
2021/03/08 10:14:34;;;;;;;64.30;26.63;;;;;;;;;;5051282;28;20078;-80
2021/03/08 10:17:09;;;;;;;50.63;23.30;;;;;;;;;;5050882;28;20048;-80
2021/03/08 10:19:35;;;;;;;57.60;18.87;;;;;;;;;;5051996;28;20027;-80
2021/03/08 10:22:00;;;;;;;50.07;20.87;;;;;;;;;;5050450;28;20492;-80
2021/03/08 10:24:33;;;;;;;48.27;23.50;;;;;;;;;;5052093;28;20013;-80
2021/03/08 10:26:58;;;;;;;64.17;26.43;;;;;;;;;;5050551;28;20024;-80
2021/03/08 10:29:24;;;;;;;60.03;23.90;;;;;;;;;;5050338;28;20013;-80
2021/03/08 10:31:50;;;;;;;50.23;21.03;;;;;;;;;;5050416;28;20461;-80
2021/03/08 10:34:16;;;;;;;42.37;18.37;;;;;;;;;;5051951;28;20688;-80
2021/03/08 10:36:42;;;;;;;39.13;16.23;;;;;;;;;;5050434;28;20013;-80
2021/03/08 10:39:08;;;;;;;45.40;20.77;;;;;;;;;;5050748;28;20024;-78
2021/03/08 10:41:34;;;;;;;35.80;15.67;;;;;;;;;;5050675;28;20104;-78
2021/03/08 10:44:00;;;;;;;53.57;18.90;;;;;;;;;;5049066;28;20021;-78
2021/03/08 10:46:29;;;;;;;34.00;14.83;;;;;;;;;;5051989;28;20629;-78
2021/03/08 10:48:59;;;;;;;37.87;15.83;;;;;;;;;;5049716;28;20057;-78
2021/03/08 10:51:25;;;;;;;31.70;13.57;;;;;;;;;;5050483;28;20017;-78
2021/03/08 10:53:55;;;;;;;27.63;13.17;;;;;;;;;;5050503;28;20032;-78
2021/03/08 10:56:20;;;;;;;30.53;13.40;;;;;;;;;;5050440;28;20531;-78
2021/03/08 10:58:45;;;;;;;29.80;11.57;;;;;;;;;;5051417;28;20100;-78
2021/03/08 11:01:10;;;;;;;30.73;13.40;;;;;;;;;;5051388;28;20028;-78
2021/03/08 11:03:36;;;;;;;31.80;11.87;;;;;;;;;;5051890;28;20143;-78
2021/03/08 11:06:03;;;;;;;32.45;15.38;;;;;;;;;;5050533;28;20111;-77
2021/03/08 11:08:28;;;;;;;31.95;15.65;;;;;;;;;;5050056;28;20021;-78
2021/03/08 11:10:53;;;;;;;37.00;17.02;;;;;;;;;;5049735;28;20392;-78
2021/03/08 11:13:18;;;;;;;37.58;14.18;;;;;;;;;;5050353;28;20028;-78
2021/03/08 11:15:44;;;;;;;35.25;14.25;;;;;;;;;;5050367;28;20104;-78
2021/03/08 11:18:24;;;;;;;29.92;13.85;;;;;;;;;;5049601;28;20035;-78
2021/03/08 11:20:49;;;;;;;27.02;12.68;;;;;;;;;;5050522;28;20025;-78
2021/03/08 11:23:23;;;;;;;26.55;13.20;;;;;;;;;;5051757;28;20025;-78
2021/03/08 11:25:48;;;;;;;31.00;12.55;;;;;;;;;;5052249;28;20033;-78
2021/03/08 11:28:15;;;;;;;32.85;15.00;;;;;;;;;;5049242;28;20032;-78
2021/03/08 11:30:50;;;;;;;23.17;10.98;;;;;;;;;;5051329;28;20384;-78
2021/03/08 11:33:15;;;;;;;24.70;12.43;;;;;;;;;;5049985;28;20341;-78
2021/03/08 11:35:40;;;;;;;27.70;11.70;;;;;;;;;;5049883;28;20024;-78
2021/03/08 11:38:05;;;;;;;25.40;11.48;;;;;;;;;;5050242;28;20032;-78
2021/03/08 11:40:31;;;;;;;33.50;15.00;;;;;;;;;;5051433;28;20023;-78
2021/03/08 11:42:57;;;;;;;30.67;12.65;;;;;;;;;;5050178;28;20131;-79
2021/03/08 11:45:23;;;;;;;27.52;11.82;;;;;;;;;;5049779;28;20063;-80
2021/03/08 11:47:59;;;;;;;31.42;14.52;;;;;;;;;;5050097;28;20033;-78
2021/03/08 11:50:25;;;;;;;31.17;13.90;;;;;;;;;;5049377;28;20032;-79
2021/03/08 11:52:50;;;;;;;26.63;11.63;;;;;;;;;;5049893;28;20025;-78
2021/03/08 11:55:16;;;;;;;26.63;12.15;;;;;;;;;;5050993;28;20033;-78
2021/03/08 11:57:42;;;;;;;23.80;11.60;;;;;;;;;;5053083;28;20017;-78
2021/03/08 12:00:08;;;;;;;21.42;8.45;;;;;;;;;;5053714;28;20028;-78
2021/03/08 12:02:33;;;;;;;26.27;12.80;;;;;;;;;;5053260;28;20094;-79
2021/03/08 12:04:58;;;;;;;24.92;11.43;;;;;;;;;;5052952;28;20120;-79
2021/03/08 12:07:24;;;;;;;31.40;15.18;;;;;;;;;;5053445;28;20183;-79
2021/03/08 12:09:49;;;;;;;34.47;15.85;;;;;;;;;;5053198;28;20035;-78
2021/03/08 12:12:14;;;;;;;30.93;14.13;;;;;;;;;;5054417;28;20021;-78
2021/03/08 12:14:39;;;;;;;32.08;13.63;;;;;;;;;;5054105;28;20013;-78
2021/03/08 12:17:04;;;;;;;28.45;12.68;;;;;;;;;;5053287;28;20100;-79
2021/03/08 12:19:30;;;;;;;32.88;16.48;;;;;;;;;;5054736;28;20084;-79
2021/03/08 12:21:55;;;;;;;39.17;16.30;;;;;;;;;;5054322;28;20056;-79
2021/03/08 12:24:20;;;;;;;31.15;14.20;;;;;;;;;;5052783;28;20444;-79
2021/03/08 12:26:45;;;;;;;27.20;12.02;;;;;;;;;;5052854;28;20033;-79
2021/03/08 12:29:10;;;;;;;37.97;17.42;;;;;;;;;;5052940;28;20415;-78
2021/03/08 12:31:36;;;;;;;28.85;11.95;;;;;;;;;;5052939;28;20040;-78
2021/03/08 12:34:01;;;;;;;28.92;12.90;;;;;;;;;;5054276;28;20044;-78
2021/03/08 12:36:26;;;;;;;32.30;14.05;;;;;;;;;;5053730;28;20028;-78
2021/03/08 12:38:51;;;;;;;32.55;14.63;;;;;;;;;;5053039;28;20021;-79
2021/03/08 12:41:17;;;;;;;32.65;16.65;;;;;;;;;;5052821;28;20112;-79
2021/03/08 12:43:42;;;;;;;25.20;12.75;;;;;;;;;;5052289;28;20461;-79
2021/03/08 12:46:07;;;;;;;33.55;15.30;;;;;;;;;;5053030;28;20373;-79
2021/03/08 12:48:32;;;;;;;28.58;13.60;;;;;;;;;;5052254;28;20025;-79
2021/03/08 12:50:57;;;;;;;25.80;11.93;;;;;;;;;;5053553;28;20025;-79
2021/03/08 12:53:23;;;;;;;26.15;10.57;;;;;;;;;;5052545;28;20028;-79
2021/03/08 12:55:48;;;;;;;38.28;14.57;;;;;;;;;;5053988;28;20021;-79
2021/03/08 12:58:13;;;;;;;35.38;15.35;;;;;;;;;;5052693;28;20029;-79
2021/03/08 13:00:38;;;;;;;29.83;14.10;;;;;;;;;;5052441;28;20473;-79
2021/03/08 13:03:04;;;;;;;27.63;11.30;;;;;;;;;;5051906;28;20025;-79
2021/03/08 13:05:29;;;;;;;30.30;14.05;;;;;;;;;;5052058;28;20025;-78
2021/03/08 13:07:54;;;;;;;26.02;11.77;;;;;;;;;;5051279;28;20052;-78
2021/03/08 13:10:19;;;;;;;25.23;11.05;;;;;;;;;;5052304;28;20035;-79
2021/03/08 13:12:44;;;;;;;27.98;12.68;;;;;;;;;;5052078;28;20136;-79
2021/03/08 13:15:11;;;;;;;32.60;14.75;;;;;;;;;;5052247;28;20526;-79
2021/03/08 13:17:36;;;;;;;26.88;11.95;;;;;;;;;;5052072;28;20021;-79
2021/03/08 13:20:04;;;;;;;30.40;14.63;;;;;;;;;;5053098;28;20025;-79
2021/03/08 13:22:29;;;;;;;29.58;14.15;;;;;;;;;;5051975;28;20035;-79
2021/03/08 13:24:54;;;;;;;34.30;15.55;;;;;;;;;;5051874;28;20341;-79
2021/03/08 13:27:19;;;;;;;30.35;12.38;;;;;;;;;;5052141;28;20029;-79
2021/03/08 13:29:45;;;;;;;26.35;12.68;;;;;;;;;;5052839;28;20033;-79
2021/03/08 13:32:10;;;;;;;27.35;10.77;;;;;;;;;;5051578;28;20128;-79
2021/03/08 13:34:35;;;;;;;30.25;13.18;;;;;;;;;;5051180;28;20021;-79
2021/03/08 13:37:00;;;;;;;26.42;12.45;;;;;;;;;;5051709;28;20029;-79
2021/03/08 13:39:26;;;;;;;23.40;11.57;;;;;;;;;;5051921;28;20025;-79
2021/03/08 13:41:51;;;;;;;28.67;11.70;;;;;;;;;;5051457;28;20384;-78
2021/03/08 13:44:16;;;;;;;30.33;13.48;;;;;;;;;;5051701;28;20029;-80
2021/03/08 13:46:41;;;;;;;27.45;12.45;;;;;;;;;;5051757;28;20021;-79
2021/03/08 13:49:06;;;;;;;27.10;12.93;;;;;;;;;;5052659;28;20024;-79
2021/03/08 13:51:32;;;;;;;26.80;13.05;;;;;;;;;;5051291;28;20027;-79
2021/03/08 13:53:57;;;;;;;28.10;12.93;;;;;;;;;;5052784;28;20083;-79
2021/03/08 13:56:22;;;;;;;29.05;12.18;;;;;;;;;;5052697;28;20405;-79
2021/03/08 13:58:47;;;;;;;24.92;11.93;;;;;;;;;;5050906;28;20064;-79
2021/03/08 14:01:12;;;;;;;24.42;11.88;;;;;;;;;;5051116;28;20032;-79
2021/03/08 14:03:38;;;;;;;23.10;11.60;;;;;;;;;;5052688;28;20021;-78
2021/03/08 14:06:03;;;;;;;21.83;9.98;;;;;;;;;;5051247;28;20024;-79
2021/03/08 14:08:28;;;;;;;20.63;10.35;;;;;;;;;;5051220;28;20043;-79
2021/03/08 14:10:54;;;;;;;24.42;11.75;;;;;;;;;;5050886;28;20389;-79
2021/03/08 14:13:19;;;;;;;30.88;10.95;;;;;;;;;;5051068;28;20033;-78
2021/03/08 14:15:44;;;;;;;22.75;11.23;;;;;;;;;;5051405;28;20017;-78